Time;durP1;ratioP1;P1;durP2;ratioP2;P2;SDS_P1;SDS_P2;PMS_P1;PMS_P2;Temp;Humidity;BMP_temperature;BMP_pressure;BME280_temperature;BME280_humidity;BME280_pressure;Samples;Min_cycle;Max_cycle;Signal;HPM_P1;HPM_P2
2021/12/14 00:02:05;;;;;;;;;;;8.40;99.90;;;;;;6239776;22;19926;-80
2021/12/14 00:04:33;;;;;;;;;;;8.90;99.90;;;;;;6238714;22;19998;-80
2021/12/14 00:07:01;;;;;;;;;;;8.40;99.90;;;;;;6268212;22;20262;-80
2021/12/14 00:09:31;;;;;;;;;;;8.40;99.90;;;;;;6240080;22;19994;-79
2021/12/14 00:17:13;;;;;;;;;;;8.40;99.90;;;;;;6240647;22;19950;-80
2021/12/14 00:19:39;;;;;;;;;;;8.40;99.90;;;;;;6238689;22;19923;-79
2021/12/14 00:22:18;;;;;;;;;;;8.40;99.90;;;;;;6240750;22;19923;-80
2021/12/14 00:24:44;;;;;;;;;;;8.40;99.90;;;;;;6242184;22;19923;-79
2021/12/14 00:27:11;;;;;;;;;;;8.40;99.90;;;;;;6242843;22;20409;-79
2021/12/14 00:29:40;;;;;;;;;;;8.40;99.90;;;;;;6242308;22;19923;-80
2021/12/14 00:32:09;;;;;;;;;;;8.40;99.90;;;;;;6269068;22;19923;-80
2021/12/14 00:34:41;;;;;;;;;;;8.40;99.90;;;;;;6269250;22;20397;-80
2021/12/14 00:37:08;;;;;;;;;;;8.40;99.90;;;;;;6242079;22;19969;-80
2021/12/14 00:39:34;;;;;;;;;;;8.40;99.90;;;;;;6241610;22;19945;-79
2021/12/14 00:42:00;;;;;;;;;;;8.40;99.90;;;;;;6242755;22;19952;-78
2021/12/14 00:44:25;;;;;;;;;;;8.40;99.90;;;;;;6269117;22;19938;-79
2021/12/14 00:46:54;;;;;;;;;;;8.40;99.90;;;;;;6270054;22;19942;-79
2021/12/14 00:49:19;;;;;;;;;;;8.40;99.90;;;;;;6241252;22;20364;-79
2021/12/14 00:51:45;;;;;;;;;;;8.40;99.90;;;;;;6241979;22;20327;-79
2021/12/14 00:54:12;;;;;;;;;;;8.40;99.90;;;;;;6241569;22;19950;-79
2021/12/14 00:56:39;;;;;;;;;;;8.40;99.90;;;;;;6269273;22;20333;-79
2021/12/14 00:59:05;;;;;;;;;;;8.40;99.90;;;;;;6268356;22;19923;-78
2021/12/14 01:01:33;;;;;;;;;;;8.40;99.90;;;;;;6242704;22;20219;-78
2021/12/14 01:04:01;;;;;;;;;;;8.40;99.90;;;;;;6240148;22;20315;-79
2021/12/14 01:06:28;;;;;;;;;;;8.40;99.90;;;;;;6241952;22;20038;-78
2021/12/14 01:08:53;;;;;;;;;;;8.40;99.90;;;;;;6240715;22;20056;-78
2021/12/14 01:11:22;;;;;;;;;;;8.40;99.90;;;;;;6242234;22;19954;-79
2021/12/14 01:13:57;;;;;;;;;;;8.40;99.90;;;;;;6240704;22;19923;-79
2021/12/14 01:16:33;;;;;;;;;;;8.40;99.90;;;;;;6242805;22;20299;-79
2021/12/14 01:19:13;;;;;;;;;;;8.40;99.90;;;;;;6239723;22;19926;-82
2021/12/14 01:21:57;;;;;;;;;;;8.40;99.90;;;;;;6240809;22;19930;-79
2021/12/14 01:27:09;;;;;;;;;;;8.40;99.90;;;;;;6241652;22;19994;-78
2021/12/14 01:29:35;;;;;;;;;;;8.30;99.90;;;;;;6240676;22;19919;-79
2021/12/14 01:32:02;;;;;;;;;;;8.30;99.90;;;;;;6241649;22;19931;-82
2021/12/14 01:34:31;;;;;;;;;;;8.40;99.90;;;;;;6239854;22;19953;-80
2021/12/14 01:36:59;;;;;;;;;;;8.40;99.90;;;;;;6267057;22;19923;-80
2021/12/14 01:42:15;;;;;;;;;;;8.30;99.90;;;;;;6268522;22;19923;-79
2021/12/14 01:44:47;;;;;;;;;;;8.40;99.90;;;;;;6238515;22;19930;-80
2021/12/14 01:47:15;;;;;;;;;;;8.30;99.90;;;;;;6269053;22;19920;-80
2021/12/14 01:49:41;;;;;;;;;;;8.30;99.90;;;;;;6240642;22;19945;-80
2021/12/14 01:52:11;;;;;;;;;;;8.30;99.90;;;;;;6241741;22;19923;-80
2021/12/14 01:54:39;;;;;;;;;;;8.40;99.90;;;;;;6241660;22;19973;-79
2021/12/14 01:57:08;;;;;;;;;;;8.30;99.90;;;;;;6215719;22;20308;-78
2021/12/14 01:59:37;;;;;;;;;;;8.30;99.90;;;;;;6240211;22;19994;-80
2021/12/14 02:04:43;;;;;;;;;;;8.30;99.90;;;;;;6239598;22;19923;-78
2021/12/14 02:07:10;;;;;;;;;;;8.30;99.90;;;;;;6241660;22;19919;-78
2021/12/14 02:09:36;;;;;;;;;;;8.30;99.90;;;;;;6237790;22;19983;-79
2021/12/14 02:12:08;;;;;;;;;;;8.30;99.90;;;;;;6239481;22;19962;-80
2021/12/14 02:14:33;;;;;;;;;;;8.30;99.90;;;;;;6240686;22;19935;-79
2021/12/14 02:17:00;;;;;;;;;;;8.30;99.90;;;;;;6268050;22;20014;-79
2021/12/14 02:19:26;;;;;;;;;;;8.30;99.90;;;;;;6267143;22;19930;-80
2021/12/14 02:21:53;;;;;;;;;;;8.30;99.90;;;;;;6267785;22;20425;-79
2021/12/14 02:24:20;;;;;;;;;;;8.80;99.90;;;;;;6240472;22;20257;-80
2021/12/14 02:26:46;;;;;;;;;;;8.20;99.90;;;;;;6240815;22;20542;-78
2021/12/14 02:29:32;;;;;;;;;;;8.30;99.90;;;;;;6240429;22;19953;-78
2021/12/14 02:32:04;;;;;;;;;;;8.30;99.90;;;;;;6241302;22;20361;-79
2021/12/14 02:34:29;;;;;;;;;;;8.30;99.90;;;;;;6239750;22;19919;-80
2021/12/14 02:36:57;;;;;;;;;;;8.30;99.90;;;;;;6241402;22;19919;-80
2021/12/14 02:39:35;;;;;;;;;;;8.30;99.90;;;;;;6240279;22;20017;-79
2021/12/14 02:42:01;;;;;;;;;;;8.30;99.90;;;;;;6240867;22;20247;-79
2021/12/14 02:44:27;;;;;;;;;;;8.20;99.90;;;;;;6267747;22;19923;-80
2021/12/14 02:46:55;;;;;;;;;;;8.20;99.90;;;;;;6269788;22;20354;-80
2021/12/14 02:49:23;;;;;;;;;;;8.20;99.90;;;;;;6239856;22;19927;-79
2021/12/14 02:51:51;;;;;;;;;;;8.20;99.90;;;;;;6240265;22;19942;-79
2021/12/14 02:54:18;;;;;;;;;;;8.20;99.90;;;;;;6240358;22;20523;-79
2021/12/14 02:56:46;;;;;;;;;;;8.20;99.90;;;;;;6241191;22;19923;-80
2021/12/14 02:59:13;;;;;;;;;;;8.20;99.90;;;;;;6267481;22;19969;-80
2021/12/14 03:01:40;;;;;;;;;;;8.20;99.90;;;;;;6240595;22;19969;-79
2021/12/14 03:04:07;;;;;;;;;;;8.20;99.90;;;;;;6239198;22;19923;-79
2021/12/14 03:06:35;;;;;;;;;;;8.20;99.90;;;;;;6267456;22;20314;-80
2021/12/14 03:09:16;;;;;;;;;;;8.20;99.90;;;;;;6266587;22;19930;-79
2021/12/14 03:11:42;;;;;;;;;;;8.20;99.90;;;;;;6240609;22;19923;-80
2021/12/14 03:14:08;;;;;;;;;;;8.20;99.90;;;;;;6240622;22;19920;-80
2021/12/14 03:16:35;;;;;;;;;;;8.20;99.90;;;;;;6240559;22;20295;-80
2021/12/14 03:19:02;;;;;;;;;;;8.20;99.90;;;;;;6240823;22;20418;-78
2021/12/14 03:21:29;;;;;;;;;;;8.20;99.90;;;;;;6240933;22;19919;-80
2021/12/14 03:24:01;;;;;;;;;;;8.20;99.90;;;;;;6240250;22;19960;-80
2021/12/14 03:26:29;;;;;;;;;;;8.20;99.90;;;;;;6241348;22;19994;-81
2021/12/14 03:28:56;;;;;;;;;;;8.20;99.90;;;;;;6239305;22;19930;-79
2021/12/14 03:31:21;;;;;;;;;;;8.20;99.90;;;;;;6240513;22;19957;-80
2021/12/14 03:33:51;;;;;;;;;;;8.20;99.90;;;;;;6238832;22;19974;-80
2021/12/14 03:36:20;;;;;;;;;;;8.20;99.90;;;;;;6240876;22;19931;-80
2021/12/14 03:38:51;;;;;;;;;;;8.20;99.90;;;;;;6239649;22;20038;-79
2021/12/14 03:41:25;;;;;;;;;;;8.10;99.90;;;;;;6268078;22;19980;-80
2021/12/14 03:43:53;;;;;;;;;;;8.20;99.90;;;;;;6266289;22;19936;-81
2021/12/14 03:46:18;;;;;;;;;;;8.10;99.90;;;;;;6240996;22;19923;-81
2021/12/14 03:48:44;;;;;;;;;;;8.20;99.90;;;;;;6238707;22;20030;-79
2021/12/14 03:51:10;;;;;;;;;;;8.10;99.90;;;;;;6240504;22;19927;-78
2021/12/14 03:53:36;;;;;;;;;;;8.10;99.90;;;;;;6239549;22;19949;-79
2021/12/14 03:56:03;;;;;;;;;;;8.10;99.90;;;;;;6239547;22;19919;-79
2021/12/14 03:58:34;;;;;;;;;;;8.10;99.90;;;;;;6241937;22;19942;-78
2021/12/14 04:01:02;;;;;;;;;;;8.10;99.90;;;;;;6242645;22;19919;-80
2021/12/14 04:03:29;;;;;;;;;;;8.10;99.90;;;;;;6241487;22;19923;-80
2021/12/14 04:05:55;;;;;;;;;;;8.10;99.90;;;;;;6242525;22;20032;-80
2021/12/14 04:08:22;;;;;;;;;;;8.10;99.90;;;;;;6241365;22;19990;-79
2021/12/14 04:10:48;;;;;;;;;;;8.20;99.90;;;;;;6241045;22;20315;-79
2021/12/14 04:13:15;;;;;;;;;;;8.20;99.90;;;;;;6242841;22;19923;-79
2021/12/14 04:15:41;;;;;;;;;;;8.20;99.90;;;;;;6240365;22;19988;-80
2021/12/14 04:18:07;;;;;;;;;;;8.20;99.90;;;;;;6241942;22;19953;-79
2021/12/14 04:20:35;;;;;;;;;;;8.20;99.90;;;;;;6241824;22;19915;-79
2021/12/14 04:23:02;;;;;;;;;;;8.20;99.90;;;;;;6241381;22;19951;-79
2021/12/14 04:25:29;;;;;;;;;;;8.10;99.90;;;;;;6241855;22;19919;-79
2021/12/14 04:27:56;;;;;;;;;;;8.20;99.90;;;;;;6242025;22;19926;-78
2021/12/14 04:30:23;;;;;;;;;;;8.20;99.90;;;;;;6268666;22;19923;-78
2021/12/14 04:32:49;;;;;;;;;;;8.20;99.90;;;;;;6242068;22;20083;-79
2021/12/14 04:35:15;;;;;;;;;;;8.20;99.90;;;;;;6241255;22;20014;-80
2021/12/14 04:37:43;;;;;;;;;;;8.20;99.90;;;;;;6241499;22;19927;-79
2021/12/14 04:53:46;;;;;;;;;;;8.20;99.90;;;;;;6240577;22;19923;-79
2021/12/14 04:56:15;;;;;;;;;;;8.10;99.90;;;;;;6242418;22;19927;-79
2021/12/14 04:58:42;;;;;;;;;;;8.20;99.90;;;;;;6241932;22;19923;-81
2021/12/14 05:01:09;;;;;;;;;;;8.50;99.90;;;;;;6242535;22;20259;-80
2021/12/14 05:03:40;;;;;;;;;;;8.10;99.90;;;;;;6240146;22;19923;-81
2021/12/14 05:06:18;;;;;;;;;;;8.10;99.90;;;;;;6241922;22;19959;-80
2021/12/14 05:11:14;;;;;;;;;;;8.40;99.90;;;;;;6243029;22;19919;-78
2021/12/14 05:13:41;;;;;;;;;;;8.10;99.90;;;;;;6239765;22;19923;-79
2021/12/14 05:16:07;;;;;;;;;;;8.10;99.90;;;;;;6241330;22;19981;-79
2021/12/14 05:18:33;;;;;;;;;;;8.10;99.90;;;;;;6240366;22;19919;-82
2021/12/14 05:20:59;;;;;;;;;;;8.20;99.90;;;;;;6215618;22;20381;-80
2021/12/14 05:23:25;;;;;;;;;;;8.10;99.90;;;;;;6240927;22;19919;-80
2021/12/14 05:25:50;;;;;;;;;;;8.10;99.90;;;;;;6241838;22;20734;-80
2021/12/14 05:28:18;;;;;;;;;;;8.10;99.90;;;;;;6241287;22;20410;-80
2021/12/14 05:30:46;;;;;;;;;;;8.10;99.90;;;;;;6240671;22;19968;-80
2021/12/14 05:33:11;;;;;;;;;;;8.10;99.90;;;;;;6266948;22;19950;-79
2021/12/14 05:35:39;;;;;;;;;;;8.10;99.90;;;;;;6238319;22;19970;-80
2021/12/14 05:38:09;;;;;;;;;;;8.10;99.90;;;;;;6240862;22;20320;-80
2021/12/14 05:43:08;;;;;;;;;;;8.10;99.90;;;;;;6241492;22;19934;-82
2021/12/14 05:45:36;;;;;;;;;;;8.10;99.90;;;;;;6241563;22;19930;-81
2021/12/14 05:48:01;;;;;;;;;;;8.10;99.90;;;;;;6240642;22;19965;-80
2021/12/14 05:50:38;;;;;;;;;;;8.10;99.90;;;;;;6241907;22;19920;-80
2021/12/14 05:53:05;;;;;;;;;;;8.10;99.90;;;;;;6241405;22;19953;-81
2021/12/14 05:55:33;;;;;;;;;;;8.10;99.90;;;;;;6240780;22;20029;-80
2021/12/14 05:57:59;;;;;;;;;;;8.10;99.90;;;;;;6240883;22;19920;-78
2021/12/14 06:00:26;;;;;;;;;;;8.10;99.90;;;;;;6241010;22;19946;-78
2021/12/14 06:02:52;;;;;;;;;;;8.00;99.90;;;;;;6241138;22;19926;-81
2021/12/14 06:05:19;;;;;;;;;;;8.10;99.90;;;;;;6239675;22;19919;-81
2021/12/14 06:07:45;;;;;;;;;;;8.10;99.90;;;;;;6240839;22;20354;-82
2021/12/14 06:10:12;;;;;;;;;;;8.10;99.90;;;;;;6267490;22;19986;-81
2021/12/14 06:12:41;;;;;;;;;;;8.00;99.90;;;;;;6268002;22;19927;-81
2021/12/14 06:15:14;;;;;;;;;;;8.10;99.90;;;;;;6241478;22;19919;-82
2021/12/14 06:17:40;;;;;;;;;;;8.10;99.90;;;;;;6240654;22;19934;-81
2021/12/14 06:20:06;;;;;;;;;;;8.10;99.90;;;;;;6239856;22;19976;-82
2021/12/14 06:22:31;;;;;;;;;;;8.10;99.90;;;;;;6268200;22;20002;-82
2021/12/14 06:25:03;;;;;;;;;;;8.10;99.90;;;;;;6267605;22;19938;-79
2021/12/14 06:27:29;;;;;;;;;;;8.10;99.90;;;;;;6242008;22;20591;-77
2021/12/14 06:30:04;;;;;;;;;;;8.10;99.90;;;;;;6237637;22;20310;-80
2021/12/14 06:32:39;;;;;;;;;;;8.10;99.90;;;;;;6268438;22;19927;-80
2021/12/14 06:35:07;;;;;;;;;;;8.10;99.90;;;;;;6266650;22;19979;-81
2021/12/14 06:40:16;;;;;;;;;;;8.10;99.90;;;;;;6239835;22;19967;-81
2021/12/14 06:42:43;;;;;;;;;;;8.10;99.90;;;;;;6240768;22;19919;-81
2021/12/14 06:45:11;;;;;;;;;;;8.10;99.90;;;;;;6239949;22;19924;-81
2021/12/14 06:47:38;;;;;;;;;;;8.10;99.90;;;;;;6240926;22;19934;-80
2021/12/14 06:50:07;;;;;;;;;;;8.10;99.90;;;;;;6241670;22;20022;-80
2021/12/14 06:52:33;;;;;;;;;;;8.10;99.90;;;;;;6239623;22;20054;-79
2021/12/14 06:55:03;;;;;;;;;;;8.10;99.90;;;;;;6268383;22;19946;-80
2021/12/14 06:57:31;;;;;;;;;;;8.10;99.90;;;;;;6240859;22;19919;-81
2021/12/14 06:59:57;;;;;;;;;;;8.10;99.90;;;;;;6239249;22;20763;-81
2021/12/14 07:02:26;;;;;;;;;;;8.10;99.90;;;;;;6268736;22;19990;-80
2021/12/14 07:04:52;;;;;;;;;;;8.10;99.90;;;;;;6238920;22;19962;-82
2021/12/14 07:07:21;;;;;;;;;;;8.10;99.90;;;;;;6240463;22;20232;-80
2021/12/14 07:09:48;;;;;;;;;;;8.10;99.90;;;;;;6239703;22;19925;-82
2021/12/14 07:12:15;;;;;;;;;;;8.10;99.90;;;;;;6240249;22;19968;-81
2021/12/14 07:14:45;;;;;;;;;;;8.10;99.90;;;;;;6240153;22;19955;-81
2021/12/14 07:17:18;;;;;;;;;;;8.10;99.90;;;;;;6240694;22;19936;-81
2021/12/14 07:19:46;;;;;;;;;;;8.20;99.90;;;;;;6238907;22;20293;-80
2021/12/14 07:22:32;;;;;;;;;;;8.10;99.90;;;;;;6239878;22;20008;-81
2021/12/14 07:25:15;;;;;;;;;;;8.10;99.90;;;;;;6240032;22;19923;-80
2021/12/14 07:27:40;;;;;;;;;;;8.10;99.90;;;;;;6267587;22;19929;-80
2021/12/14 07:30:09;;;;;;;;;;;8.10;99.90;;;;;;6240178;22;19955;-81
2021/12/14 07:32:39;;;;;;;;;;;8.10;99.90;;;;;;6241809;22;19923;-80
2021/12/14 07:35:20;;;;;;;;;;;8.10;99.90;;;;;;6241337;22;19978;-79
2021/12/14 07:37:46;;;;;;;;;;;8.10;99.90;;;;;;6239807;22;19923;-80
2021/12/14 07:40:12;;;;;;;;;;;8.10;99.90;;;;;;6241655;22;19919;-80
2021/12/14 07:42:38;;;;;;;;;;;8.10;99.90;;;;;;6242515;22;20306;-80
2021/12/14 07:45:05;;;;;;;;;;;8.10;99.90;;;;;;6241748;22;19998;-80
2021/12/14 07:47:30;;;;;;;;;;;8.10;99.90;;;;;;6242659;22;20361;-80
2021/12/14 07:49:56;;;;;;;;;;;8.10;99.90;;;;;;6240723;22;19930;-83
2021/12/14 07:52:26;;;;;;;;;;;8.10;99.90;;;;;;6242442;22;19954;-80
2021/12/14 07:54:58;;;;;;;;;;;8.10;99.90;;;;;;6241519;22;19926;-80
2021/12/14 07:57:31;;;;;;;;;;;8.80;99.90;;;;;;6240788;22;19998;-79
2021/12/14 08:00:04;;;;;;;;;;;8.10;99.90;;;;;;6243259;22;19923;-80
2021/12/14 08:02:31;;;;;;;;;;;8.10;99.90;;;;;;6242064;22;19923;-80
2021/12/14 08:05:04;;;;;;;;;;;8.10;99.90;;;;;;6241338;22;19986;-81
2021/12/14 08:07:31;;;;;;;;;;;8.10;99.90;;;;;;6242067;22;19994;-80
2021/12/14 08:10:05;;;;;;;;;;;8.10;99.90;;;;;;6240867;22;19929;-82
2021/12/14 08:12:39;;;;;;;;;;;8.10;99.90;;;;;;6242238;22;20249;-80
2021/12/14 08:15:11;;;;;;;;;;;8.10;99.90;;;;;;6240711;22;19923;-81
2021/12/14 08:17:38;;;;;;;;;;;8.10;99.90;;;;;;6242689;22;20262;-81
2021/12/14 08:20:09;;;;;;;;;;;8.10;99.90;;;;;;6241039;22;19923;-81
2021/12/14 08:22:36;;;;;;;;;;;8.10;99.90;;;;;;6241195;22;19965;-81
2021/12/14 08:25:02;;;;;;;;;;;8.20;99.90;;;;;;6241090;22;19941;-80
2021/12/14 08:27:29;;;;;;;;;;;8.20;99.90;;;;;;6242721;22;20250;-81
2021/12/14 08:29:57;;;;;;;;;;;8.20;99.90;;;;;;6241274;22;19981;-80
2021/12/14 08:32:25;;;;;;;;;;;8.20;99.90;;;;;;6242379;22;20347;-79
2021/12/14 08:34:51;;;;;;;;;;;8.20;99.90;;;;;;6240970;22;20787;-80
2021/12/14 08:37:17;;;;;;;;;;;8.20;99.90;;;;;;6241849;22;20298;-80
2021/12/14 08:40:00;;;;;;;;;;;8.20;99.90;;;;;;6241835;22;19926;-79
2021/12/14 08:42:39;;;;;;;;;;;8.20;99.90;;;;;;6241464;22;19923;-81
2021/12/14 08:45:24;;;;;;;;;;;8.20;99.90;;;;;;6241747;22;19923;-80
2021/12/14 08:47:51;;;;;;;;;;;8.20;99.90;;;;;;6243507;22;19923;-80
2021/12/14 08:50:16;;;;;;;;;;;8.20;99.90;;;;;;6241336;22;19927;-80
2021/12/14 08:52:42;;;;;;;;;;;8.20;99.90;;;;;;6241163;22;19926;-80
2021/12/14 08:55:09;;;;;;;;;;;8.20;99.90;;;;;;6242787;22;20232;-81
2021/12/14 08:57:35;;;;;;;;;;;8.20;99.90;;;;;;6269210;22;20336;-79
2021/12/14 09:00:12;;;;;;;;;;;8.30;99.90;;;;;;6239583;22;20033;-79
2021/12/14 09:02:38;;;;;;;;;;;8.30;99.90;;;;;;6240201;22;20014;-79
2021/12/14 09:05:06;;;;;;;;;;;8.30;99.90;;;;;;6236148;22;19959;-80
2021/12/14 09:07:32;;;;;;;;;;;8.30;99.90;;;;;;6239380;22;19926;-83
2021/12/14 09:09:58;;;;;;;;;;;8.30;99.90;;;;;;6240439;22;20387;-79
2021/12/14 09:12:28;;;;;;;;;;;8.30;99.90;;;;;;6241214;22;19930;-80
2021/12/14 09:14:57;;;;;;;;;;;8.30;99.90;;;;;;6268002;22;20193;-79
2021/12/14 09:17:23;;;;;;;;;;;8.40;99.90;;;;;;6241611;22;20026;-79
2021/12/14 09:19:51;;;;;;;;;;;8.40;99.90;;;;;;6240448;22;20807;-79
2021/12/14 09:22:29;;;;;;;;;;;8.60;99.90;;;;;;6240297;22;19950;-79
2021/12/14 09:24:55;;;;;;;;;;;8.40;99.90;;;;;;6239919;22;19919;-80
2021/12/14 09:27:21;;;;;;;;;;;8.40;99.90;;;;;;6240343;22;19930;-80
2021/12/14 09:29:48;;;;;;;;;;;8.40;99.90;;;;;;6240654;22;19919;-80
2021/12/14 09:32:23;;;;;;;;;;;8.40;99.90;;;;;;6241614;22;19923;-79
2021/12/14 09:34:49;;;;;;;;;;;8.40;99.90;;;;;;6239346;22;20340;-79
2021/12/14 09:37:15;;;;;;;;;;;8.40;99.90;;;;;;6240906;22;19969;-79
2021/12/14 09:39:45;;;;;;;;;;;8.40;99.90;;;;;;6238214;22;19926;-80
2021/12/14 09:42:14;;;;;;;;;;;8.40;99.90;;;;;;6269048;22;19923;-79
2021/12/14 09:44:43;;;;;;;;;;;8.50;99.90;;;;;;6240050;22;19924;-80
2021/12/14 09:47:12;;;;;;;;;;;8.50;99.90;;;;;;6263961;22;20414;-80
2021/12/14 09:49:39;;;;;;;;;;;9.20;99.90;;;;;;6240710;22;19969;-80
2021/12/14 09:52:10;;;;;;;;;;;8.50;99.90;;;;;;6268400;22;19949;-81
2021/12/14 09:54:36;;;;;;;;;;;8.50;99.90;;;;;;6267601;22;19977;-80
2021/12/14 09:57:13;;;;;;;;;;;8.50;99.90;;;;;;6268862;22;20228;-80
2021/12/14 09:59:39;;;;;;;;;;;8.50;99.90;;;;;;6268077;22;19927;-80
2021/12/14 10:02:11;;;;;;;;;;;8.50;99.90;;;;;;6267517;22;19922;-80
2021/12/14 10:04:42;;;;;;;;;;;8.60;99.90;;;;;;6240463;22;19925;-80
2021/12/14 10:07:09;;;;;;;;;;;8.60;99.90;;;;;;6268088;22;20281;-79
2021/12/14 10:09:39;;;;;;;;;;;8.60;99.90;;;;;;6238594;22;19927;-78
2021/12/14 10:13:08;;;;;;;;;;;8.60;99.90;;;;;;6241502;22;19926;-79
2021/12/14 10:15:26;;;;;;;;;;;8.60;99.90;;;;;;6207720;22;19949;-79
2021/12/14 10:17:52;;;;;;;;;;;8.60;99.90;;;;;;6220623;22;20389;-78
2021/12/14 10:20:20;;;;;;;;;;;8.60;99.90;;;;;;6266820;22;19934;-77
2021/12/14 10:22:46;;;;;;;;;;;8.60;99.90;;;;;;6268205;22;19942;-79
2021/12/14 10:25:15;;;;;;;;;;;8.60;99.90;;;;;;6239624;22;20232;-80
2021/12/14 10:27:45;;;;;;;;;;;8.60;99.90;;;;;;6241193;22;20048;-80
2021/12/14 10:30:15;;;;;;;;;;;8.60;99.90;;;;;;6239155;22;19994;-79
2021/12/14 10:32:41;;;;;;;;;;;8.60;99.90;;;;;;6241572;22;19919;-79
2021/12/14 10:35:12;;;;;;;;;;;9.30;99.90;;;;;;6238700;22;20351;-78
2021/12/14 10:37:52;;;;;;;;;;;8.60;99.90;;;;;;6240138;22;19923;-79
2021/12/14 10:43:15;;;;;;;;;;;8.60;99.90;;;;;;6239763;22;19923;-79
2021/12/14 10:45:43;;;;;;;;;;;8.60;99.90;;;;;;6238694;22;19930;-79
2021/12/14 10:48:09;;;;;;;;;;;8.70;99.90;;;;;;6240097;22;19919;-77
2021/12/14 10:50:36;;;;;;;;;;;8.70;99.90;;;;;;6237761;22;20295;-80
2021/12/14 10:53:03;;;;;;;;;;;8.70;99.90;;;;;;6240155;22;19992;-79
2021/12/14 10:55:34;;;;;;;;;;;8.70;99.90;;;;;;6239069;22;19998;-81
2021/12/14 10:58:00;;;;;;;;;;;8.70;99.90;;;;;;6237218;22;19923;-81
2021/12/14 11:00:32;;;;;;;;;;;8.70;99.90;;;;;;6236580;22;19923;-81
2021/12/14 11:03:02;;;;;;;;;;;8.70;99.90;;;;;;6234757;22;19923;-79
2021/12/14 11:05:30;;;;;;;;;;;8.70;99.90;;;;;;6235934;22;20540;-81
2021/12/14 11:07:56;;;;;;;;;;;8.70;99.90;;;;;;6237303;22;19938;-80
2021/12/14 11:10:25;;;;;;;;;;;9.40;99.90;;;;;;6235811;22;20280;-81
2021/12/14 11:12:54;;;;;;;;;;;8.70;99.90;;;;;;6239514;22;20653;-79
2021/12/14 11:15:24;;;;;;;;;;;8.90;99.90;;;;;;6239501;22;19927;-80
2021/12/14 11:18:08;;;;;;;;;;;8.80;99.90;;;;;;6237668;22;19927;-81
2021/12/14 11:20:37;;;;;;;;;;;8.80;99.90;;;;;;6236862;22;20259;-81
2021/12/14 11:23:08;;;;;;;;;;;8.80;99.90;;;;;;6236131;22;19923;-80
2021/12/14 11:25:39;;;;;;;;;;;8.80;99.90;;;;;;6234102;22;20550;-81
2021/12/14 11:28:07;;;;;;;;;;;8.80;99.90;;;;;;6237157;22;19931;-82
2021/12/14 11:30:32;;;;;;;;;;;8.80;99.90;;;;;;6235614;22;19923;-81
2021/12/14 11:33:10;;;;;;;;;;;8.80;99.90;;;;;;6236370;22;20402;-80
2021/12/14 11:35:40;;;;;;;;;;;8.80;99.90;;;;;;6233804;22;19965;-82
2021/12/14 11:38:12;;;;;;;;;;;9.50;99.90;;;;;;6238772;22;19998;-82
2021/12/14 11:40:38;;;;;;;;;;;8.80;99.90;;;;;;6234788;22;19990;-81
2021/12/14 11:43:16;;;;;;;;;;;8.80;99.90;;;;;;6235808;22;19978;-81
2021/12/14 11:45:42;;;;;;;;;;;8.80;99.90;;;;;;6237472;22;20285;-81
2021/12/14 11:48:08;;;;;;;;;;;8.80;99.90;;;;;;6237112;22;19923;-81
2021/12/14 11:50:38;;;;;;;;;;;8.80;99.90;;;;;;6235266;22;19923;-82
2021/12/14 11:53:09;;;;;;;;;;;8.80;99.90;;;;;;6236769;22;20020;-82
2021/12/14 11:55:50;;;;;;;;;;;8.80;99.90;;;;;;6237018;22;19923;-81
2021/12/14 11:58:23;;;;;;;;;;;8.90;99.90;;;;;;6235571;22;19923;-81
2021/12/14 12:00:55;;;;;;;;;;;8.90;99.90;;;;;;6235079;22;19950;-80
2021/12/14 12:03:26;;;;;;;;;;;8.90;99.90;;;;;;6235452;22;20323;-80
2021/12/14 12:06:02;;;;;;;;;;;8.90;99.90;;;;;;6235545;22;19923;-80
2021/12/14 12:11:15;;;;;;;;;;;8.90;99.90;;;;;;6264121;22;19927;-80
2021/12/14 12:13:41;;;;;;;;;;;8.90;99.90;;;;;;6236773;22;19929;-80
2021/12/14 12:16:12;;;;;;;;;;;8.90;99.90;;;;;;6236305;22;20271;-81
2021/12/14 12:18:38;;;;;;;;;;;8.90;99.90;;;;;;6237982;22;19923;-83
2021/12/14 12:21:03;;;;;;;;;;;8.90;99.90;;;;;;6239251;22;19919;-81
2021/12/14 12:23:32;;;;;;;;;;;8.90;99.90;;;;;;6242500;22;19922;-81
2021/12/14 12:26:00;;;;;;;;;;;8.90;99.90;;;;;;6242405;22;19966;-81
2021/12/14 12:28:32;;;;;;;;;;;8.90;99.90;;;;;;6269346;22;20003;-81
2021/12/14 12:31:03;;;;;;;;;;;9.00;99.90;;;;;;6243313;22;19922;-81
2021/12/14 12:33:37;;;;;;;;;;;9.70;99.90;;;;;;6242737;22;19919;-80
2021/12/14 12:36:02;;;;;;;;;;;9.00;99.90;;;;;;6242503;22;19938;-81
2021/12/14 12:38:34;;;;;;;;;;;9.00;99.90;;;;;;6243985;22;19920;-81
2021/12/14 12:40:59;;;;;;;;;;;9.00;99.90;;;;;;6268791;22;19991;-80
2021/12/14 12:43:28;;;;;;;;;;;9.00;99.90;;;;;;6270904;22;19998;-81
2021/12/14 12:45:58;;;;;;;;;;;9.00;99.90;;;;;;6268806;22;19996;-81
2021/12/14 12:48:38;;;;;;;;;;;9.00;99.90;;;;;;6242854;22;19919;-81
2021/12/14 12:51:03;;;;;;;;;;;9.00;99.90;;;;;;6241257;22;19919;-81
2021/12/14 12:53:32;;;;;;;;;;;9.30;99.90;;;;;;6270481;22;19926;-82
2021/12/14 12:56:09;;;;;;;;;;;9.00;99.90;;;;;;6242312;22;19935;-81
2021/12/14 12:58:38;;;;;;;;;;;9.10;99.90;;;;;;6269208;22;19961;-82
2021/12/14 13:01:04;;;;;;;;;;;9.00;99.90;;;;;;6241433;22;19919;-81
2021/12/14 13:03:36;;;;;;;;;;;9.10;99.90;;;;;;6239867;22;19929;-80
2021/12/14 13:06:06;;;;;;;;;;;9.10;99.90;;;;;;6239392;22;19948;-81
2021/12/14 13:08:37;;;;;;;;;;;9.10;99.90;;;;;;6242057;22;20216;-81
2021/12/14 13:11:05;;;;;;;;;;;9.10;99.90;;;;;;6236789;22;19945;-81
2021/12/14 13:13:33;;;;;;;;;;;9.10;99.90;;;;;;6239555;22;19986;-81
2021/12/14 13:16:07;;;;;;;;;;;9.10;99.90;;;;;;6239676;22;19926;-81
2021/12/14 13:18:41;;;;;;;;;;;9.10;99.90;;;;;;6215863;22;20663;-80
2021/12/14 13:21:15;;;;;;;;;;;9.10;99.90;;;;;;6240621;22;19919;-81
2021/12/14 13:23:56;;;;;;;;;;;9.10;99.90;;;;;;6242366;22;19926;-81
2021/12/14 13:26:21;;;;;;;;;;;9.10;99.90;;;;;;6240694;22;20018;-81
2021/12/14 13:28:47;;;;;;;;;;;9.10;99.90;;;;;;6241932;22;20000;-81
2021/12/14 13:31:26;;;;;;;;;;;9.10;99.90;;;;;;6266802;22;19958;-82
2021/12/14 13:33:52;;;;;;;;;;;9.10;99.90;;;;;;6267605;22;20342;-81
2021/12/14 13:36:17;;;;;;;;;;;9.10;99.90;;;;;;6240427;22;19957;-81
2021/12/14 13:38:43;;;;;;;;;;;9.10;99.90;;;;;;6241599;22;19994;-80
2021/12/14 13:41:17;;;;;;;;;;;9.10;99.90;;;;;;6240425;22;20331;-82
2021/12/14 13:43:44;;;;;;;;;;;9.20;99.90;;;;;;6268988;22;19992;-81
2021/12/14 13:46:09;;;;;;;;;;;9.20;99.90;;;;;;6259098;22;19953;-82
2021/12/14 13:48:38;;;;;;;;;;;9.20;99.90;;;;;;6241634;22;19955;-81
2021/12/14 13:51:11;;;;;;;;;;;9.20;99.90;;;;;;6268951;22;20381;-82
2021/12/14 13:53:37;;;;;;;;;;;9.20;99.90;;;;;;6238549;22;19927;-82
2021/12/14 13:56:05;;;;;;;;;;;9.20;99.90;;;;;;6237914;22;19923;-81
2021/12/14 13:58:32;;;;;;;;;;;9.20;99.90;;;;;;6241922;22;19919;-81
2021/12/14 14:01:07;;;;;;;;;;;9.20;99.90;;;;;;6243101;22;19954;-82
2021/12/14 14:03:34;;;;;;;;;;;9.20;99.90;;;;;;6248546;22;19926;-82
2021/12/14 14:06:05;;;;;;;;;;;9.20;99.90;;;;;;6247068;22;20333;-83
2021/12/14 14:08:41;;;;;;;;;;;9.20;99.90;;;;;;6244841;22;19919;-85
2021/12/14 14:11:25;;;;;;;;;;;9.20;99.90;;;;;;6245958;22;20231;-82
2021/12/14 14:13:52;;;;;;;;;;;9.20;99.90;;;;;;6244495;22;19923;-81
2021/12/14 14:16:18;;;;;;;;;;;9.30;99.90;;;;;;6246456;22;20319;-83
2021/12/14 14:18:46;;;;;;;;;;;9.30;99.90;;;;;;6246543;22;19994;-82
2021/12/14 14:21:13;;;;;;;;;;;9.30;99.90;;;;;;6241764;22;20376;-81
2021/12/14 14:41:11;;;;;;;;;;;9.30;99.90;;;;;;6237923;22;20000;-80
2021/12/14 14:43:54;;;;;;;;;;;9.30;99.90;;;;;;6238344;23;19970;-82
2021/12/14 14:46:38;;;;;;;;;;;9.30;99.90;;;;;;6213286;23;19919;-83
2021/12/14 14:57:40;;;;;;;;;;;9.30;99.90;;;;;;6253418;22;20060;-80
2021/12/14 15:00:30;;;;;;;;;;;9.30;99.90;;;;;;6210832;23;19923;-80
2021/12/14 17:17:07;;;;;;;;;;;9.20;99.90;;;;;;6294443;22;19937;-77
2021/12/14 17:19:34;;;;;;;;;;;9.20;99.90;;;;;;6210106;23;20030;-78
2021/12/14 17:22:12;;;;;;;;;;;9.20;99.90;;;;;;6211941;23;19981;-77
2021/12/14 17:24:46;;;;;;;;;;;9.20;99.90;;;;;;6210006;23;20016;-79
2021/12/14 17:27:14;;;;;;;;;;;9.20;99.90;;;;;;6211586;23;19923;-77
2021/12/14 17:29:41;;;;;;;;;;;9.20;99.90;;;;;;6210750;23;19926;-76
2021/12/14 17:32:10;;;;;;;;;;;9.20;99.90;;;;;;6210754;23;19977;-77
2021/12/14 17:34:37;;;;;;;;;;;9.20;99.90;;;;;;6209980;23;19926;-77
2021/12/14 17:37:05;;;;;;;;;;;9.20;99.90;;;;;;6209186;23;19920;-78
2021/12/14 17:39:33;;;;;;;;;;;9.20;99.90;;;;;;6208119;23;19973;-77
2021/12/14 17:42:01;;;;;;;;;;;9.20;99.90;;;;;;6210019;23;19924;-77
2021/12/14 17:44:37;;;;;;;;;;;9.20;99.90;;;;;;6210108;23;20018;-77
2021/12/14 17:47:17;;;;;;;;;;;9.20;99.90;;;;;;6210268;23;19924;-77
2021/12/14 17:49:47;;;;;;;;;;;8.80;99.90;;;;;;6210591;23;19920;-76
2021/12/14 17:52:23;;;;;;;;;;;9.20;99.90;;;;;;6208221;23;20006;-77
2021/12/14 18:21:52;;;;;;;;;;;9.30;99.90;;;;;;6284725;22;19992;-77
2021/12/14 18:24:20;;;;;;;;;;;9.30;99.90;;;;;;6237239;22;20025;-77
2021/12/14 18:26:51;;;;;;;;;;;9.90;99.90;;;;;;6238598;22;19923;-76
2021/12/14 18:29:22;;;;;;;;;;;9.30;99.90;;;;;;6239245;22;20014;-77
2021/12/14 18:31:52;;;;;;;;;;;9.30;99.90;;;;;;6237582;22;20472;-76